createdAt,value
2017-09-01T00:00:44.175Z,14.46
2017-09-01T00:03:12.482Z,14.49
2017-09-01T00:05:40.802Z,14.48
2017-09-01T00:08:09.107Z,14.52
2017-09-01T00:10:37.430Z,14.51
2017-09-01T00:13:05.741Z,14.50
2017-09-01T00:15:34.118Z,14.44
2017-09-01T00:18:02.427Z,14.39
2017-09-01T00:20:30.732Z,14.50
2017-09-01T00:22:59.045Z,14.48
2017-09-01T00:25:27.350Z,14.46
2017-09-01T00:27:55.662Z,14.28
2017-09-01T00:30:23.974Z,14.27
2017-09-01T00:32:52.288Z,14.25
2017-09-01T00:35:20.594Z,14.25
2017-09-01T00:37:48.925Z,14.24
2017-09-01T00:40:17.234Z,14.19
2017-09-01T00:42:45.542Z,14.12
2017-09-01T00:45:13.862Z,14.12
2017-09-01T00:47:42.179Z,14.17
2017-09-01T00:50:10.505Z,14.19
2017-09-01T00:52:38.796Z,14.21
2017-09-01T00:55:07.105Z,14.23
2017-09-01T00:57:35.400Z,14.17
2017-09-01T01:00:03.709Z,14.20
2017-09-01T01:02:32.010Z,14.17
2017-09-01T01:05:00.316Z,14.10
2017-09-01T01:07:28.650Z,14.17
2017-09-01T01:09:56.961Z,14.07
2017-09-01T01:12:25.281Z,14.04
2017-09-01T01:14:53.637Z,14.04
2017-09-01T01:17:21.942Z,13.99
2017-09-01T01:19:50.292Z,13.94
2017-09-01T01:22:18.618Z,13.93
2017-09-01T01:24:46.917Z,13.94
2017-09-01T01:27:15.245Z,13.92
2017-09-01T01:29:43.569Z,13.94
2017-09-01T01:32:11.865Z,13.95
2017-09-01T01:34:40.184Z,13.93
2017-09-01T01:37:08.485Z,13.97
2017-09-01T01:39:36.798Z,13.95
2017-09-01T01:42:05.130Z,13.97
2017-09-01T01:44:33.455Z,13.92
2017-09-01T01:47:01.769Z,13.87
2017-09-01T01:49:30.077Z,13.84
2017-09-01T01:51:58.397Z,13.77
2017-09-01T01:54:26.734Z,13.73
2017-09-01T01:56:55.053Z,13.74
2017-09-01T01:59:23.362Z,13.72
2017-09-01T02:01:51.677Z,13.71
2017-09-01T02:04:19.986Z,13.66
2017-09-01T02:06:48.292Z,13.60
2017-09-01T02:09:16.585Z,13.56
2017-09-01T02:11:44.895Z,13.57
2017-09-01T02:14:13.226Z,13.53
2017-09-01T02:16:41.581Z,13.48
2017-09-01T02:19:09.908Z,13.45
2017-09-01T02:21:38.220Z,13.43
2017-09-01T02:24:06.534Z,13.38
2017-09-01T02:26:34.874Z,13.29
2017-09-01T02:29:03.257Z,13.22
2017-09-01T02:31:31.561Z,13.12
2017-09-01T02:33:59.869Z,13.08
2017-09-01T02:36:28.168Z,13.04
2017-09-01T02:38:56.513Z,12.97
2017-09-01T02:41:24.823Z,12.91
2017-09-01T02:43:53.131Z,12.91
2017-09-01T02:46:21.432Z,12.89
2017-09-01T02:48:49.732Z,12.83
2017-09-01T02:51:18.081Z,12.81
2017-09-01T02:53:46.395Z,12.82
2017-09-01T02:56:14.721Z,12.83
2017-09-01T02:58:43.026Z,12.78
2017-09-01T03:01:11.333Z,12.77
2017-09-01T03:03:39.633Z,12.79
2017-09-01T03:06:08.180Z,12.78
2017-09-01T03:08:36.496Z,12.81
2017-09-01T03:11:04.805Z,12.83
2017-09-01T03:13:33.158Z,12.87
2017-09-01T03:16:01.474Z,12.85
2017-09-01T03:18:29.813Z,12.88
2017-09-01T03:20:58.125Z,12.83
2017-09-01T03:23:26.516Z,12.83
2017-09-01T03:25:54.822Z,12.83
2017-09-01T03:28:23.160Z,12.91
2017-09-01T03:30:51.478Z,12.93
2017-09-01T03:33:19.788Z,12.93
2017-09-01T03:35:48.098Z,12.87
2017-09-01T03:38:16.400Z,12.90
2017-09-01T03:40:44.729Z,12.86
2017-09-01T03:43:13.021Z,12.86
2017-09-01T03:45:41.363Z,12.78
2017-09-01T03:48:09.697Z,12.85
2017-09-01T03:50:38.030Z,12.89
2017-09-01T03:53:06.334Z,12.88
2017-09-01T03:55:34.652Z,12.90
2017-09-01T03:58:02.966Z,12.89
2017-09-01T04:00:31.304Z,12.88
2017-09-01T04:02:59.886Z,12.82
2017-09-01T04:05:28.204Z,12.81
2017-09-01T04:07:56.532Z,12.73
2017-09-01T04:10:24.858Z,12.66
2017-09-01T04:12:53.187Z,12.67
2017-09-01T04:15:21.518Z,12.63
2017-09-01T04:17:49.841Z,12.57
2017-09-01T04:20:18.147Z,12.56
2017-09-01T04:22:46.492Z,12.57
2017-09-01T04:25:14.804Z,12.53
2017-09-01T04:27:43.114Z,12.56
2017-09-01T04:30:11.458Z,12.57
2017-09-01T04:32:39.765Z,12.56
2017-09-01T04:35:08.870Z,12.60
2017-09-01T04:37:37.194Z,12.60
2017-09-01T04:40:05.500Z,12.63
2017-09-01T04:42:33.805Z,12.79
2017-09-01T04:45:02.138Z,12.94
2017-09-01T04:47:30.454Z,13.10
2017-09-01T04:49:58.775Z,13.25
2017-09-01T04:52:27.089Z,13.32
2017-09-01T04:54:55.425Z,13.43
2017-09-01T04:57:23.747Z,13.51
2017-09-01T04:59:52.100Z,13.50
2017-09-01T05:02:20.408Z,13.54
2017-09-01T05:04:48.709Z,13.74
2017-09-01T05:07:17.100Z,13.91
2017-09-01T05:09:45.716Z,13.91
2017-09-01T05:12:14.017Z,14.08
2017-09-01T05:14:42.337Z,14.10
2017-09-01T05:17:10.646Z,14.04
2017-09-01T05:19:39.024Z,14.17
2017-09-01T05:22:07.369Z,14.31
2017-09-01T05:24:35.690Z,14.44
2017-09-01T05:27:03.998Z,14.38
2017-09-01T05:29:32.317Z,14.39
2017-09-01T05:32:00.625Z,14.36
2017-09-01T05:34:28.968Z,14.38
2017-09-01T05:36:57.309Z,14.44
2017-09-01T05:39:25.615Z,14.38
2017-09-01T05:41:53.945Z,14.44
2017-09-01T05:44:22.269Z,14.42
2017-09-01T05:46:50.581Z,14.44
2017-09-01T05:49:18.897Z,14.46
2017-09-01T05:51:47.205Z,14.70
2017-09-01T05:54:15.521Z,14.61
2017-09-01T05:56:43.869Z,15.00
2017-09-01T05:59:12.177Z,15.13
2017-09-01T06:01:40.487Z,15.28
2017-09-01T06:04:08.811Z,15.05
2017-09-01T06:06:37.119Z,15.41
2017-09-01T06:09:05.441Z,15.46
2017-09-01T06:11:33.761Z,15.73
2017-09-01T06:14:02.064Z,15.74
2017-09-01T06:16:30.397Z,15.61
2017-09-01T06:18:58.717Z,15.88
2017-09-01T06:21:27.024Z,16.10
2017-09-01T06:23:55.332Z,16.17
2017-09-01T06:26:23.650Z,16.45
2017-09-01T06:28:51.956Z,16.68
2017-09-01T06:31:20.268Z,16.89
2017-09-01T06:33:48.581Z,16.87
2017-09-01T06:36:16.903Z,16.94
2017-09-01T06:38:45.222Z,17.25
2017-09-01T06:41:13.547Z,17.10
2017-09-01T06:43:41.863Z,16.91
2017-09-01T06:46:10.184Z,16.74
2017-09-01T06:48:38.497Z,17.16
2017-09-01T06:51:06.797Z,16.72
2017-09-01T06:53:35.120Z,16.99
2017-09-01T06:56:03.426Z,16.93
2017-09-01T06:58:31.738Z,17.16
2017-09-01T07:01:00.053Z,17.28
2017-09-01T07:03:28.370Z,16.76
2017-09-01T07:05:56.674Z,17.15
2017-09-01T07:08:25.015Z,17.01
2017-09-01T07:10:53.333Z,17.50
2017-09-01T07:13:21.644Z,17.81
2017-09-01T07:15:49.969Z,17.97
2017-09-01T07:18:18.272Z,18.29
2017-09-01T07:20:46.586Z,18.12
2017-09-01T07:23:14.885Z,18.13
2017-09-01T07:25:43.215Z,18.42
2017-09-01T07:28:11.526Z,18.38
2017-09-01T07:30:39.848Z,17.53
2017-09-01T07:33:08.168Z,18.08
2017-09-01T07:35:36.494Z,18.16
2017-09-01T07:38:04.811Z,18.47
2017-09-01T07:40:33.160Z,18.49
2017-09-01T07:43:01.466Z,18.56
2017-09-01T07:45:29.768Z,18.49
2017-09-01T07:47:58.082Z,18.45
2017-09-01T07:50:26.381Z,18.83
2017-09-01T07:52:54.701Z,18.98
2017-09-01T07:55:23.003Z,19.01
2017-09-01T07:57:51.321Z,18.78
2017-09-01T08:00:19.627Z,18.55
2017-09-01T08:02:47.928Z,18.09
2017-09-01T08:05:16.240Z,18.43
2017-09-01T08:07:44.548Z,18.81
2017-09-01T08:10:12.849Z,18.33
2017-09-01T08:12:41.182Z,18.69
2017-09-01T08:15:09.491Z,19.32
2017-09-01T08:17:37.807Z,19.49
2017-09-01T08:20:06.120Z,19.56
2017-09-01T08:22:34.429Z,19.72
2017-09-01T08:25:02.745Z,19.66
2017-09-01T08:27:31.071Z,19.84
2017-09-01T08:29:59.394Z,20.15
2017-09-01T08:32:27.696Z,20.18
2017-09-01T08:34:56.004Z,20.16
2017-09-01T08:37:24.300Z,19.93
2017-09-01T08:39:52.601Z,19.31
2017-09-01T08:42:20.931Z,19.28
2017-09-01T08:44:49.277Z,19.22
2017-09-01T08:47:17.597Z,19.58
2017-09-01T08:49:45.889Z,19.18
2017-09-01T08:52:14.210Z,19.31
2017-09-01T08:54:42.525Z,19.80
2017-09-01T08:57:10.844Z,19.19
2017-09-01T08:59:39.149Z,19.58
2017-09-01T09:02:07.454Z,19.44
2017-09-01T09:04:35.766Z,19.19
2017-09-01T09:07:04.094Z,19.42
2017-09-01T09:09:32.424Z,19.87
2017-09-01T09:12:00.757Z,19.96
2017-09-01T09:14:29.048Z,20.26
2017-09-01T09:16:57.349Z,19.55
2017-09-01T09:19:25.672Z,19.73
2017-09-01T09:21:53.971Z,19.98
2017-09-01T09:24:22.305Z,19.94
2017-09-01T09:26:51.281Z,19.74
2017-09-01T09:29:19.587Z,20.05
2017-09-01T09:31:47.888Z,19.43
2017-09-01T09:34:16.197Z,20.17
2017-09-01T09:36:44.557Z,19.99
2017-09-01T09:39:12.870Z,20.16
2017-09-01T09:41:41.177Z,20.25
2017-09-01T09:44:09.505Z,20.51
2017-09-01T09:46:37.818Z,20.46
2017-09-01T09:49:06.129Z,20.68
2017-09-01T09:51:34.455Z,20.76
2017-09-01T09:54:02.775Z,20.31
2017-09-01T09:56:31.090Z,20.38
2017-09-01T09:58:59.397Z,20.21
2017-09-01T10:01:27.711Z,21.22
2017-09-01T10:03:56.037Z,21.29
2017-09-01T10:06:24.368Z,21.19
2017-09-01T10:08:53.298Z,21.26
2017-09-01T10:11:21.636Z,20.73
2017-09-01T10:13:49.932Z,20.54
2017-09-01T10:16:18.234Z,20.25
2017-09-01T10:18:46.545Z,20.53
2017-09-01T10:21:14.857Z,21.15
2017-09-01T10:23:43.165Z,21.13
2017-09-01T10:26:11.475Z,20.98
2017-09-01T10:28:39.781Z,21.09
2017-09-01T10:31:08.082Z,20.86
2017-09-01T10:33:36.389Z,21.21
2017-09-01T10:36:04.688Z,20.76
2017-09-01T10:38:32.992Z,20.38
2017-09-01T10:41:01.289Z,21.01
2017-09-01T10:43:29.607Z,21.04
2017-09-01T10:45:57.908Z,21.11
2017-09-01T10:48:43.955Z,21.29
2017-09-01T10:51:30.038Z,21.11
2017-09-01T10:57:28.497Z,20.99
2017-09-01T10:59:56.820Z,21.18
2017-09-01T11:02:25.113Z,21.02
2017-09-01T11:04:53.413Z,21.20
2017-09-01T11:07:21.719Z,20.73
2017-09-01T11:09:50.013Z,20.59
2017-09-01T11:12:18.322Z,19.89
2017-09-01T11:14:46.612Z,20.26
2017-09-01T11:17:14.913Z,20.43
2017-09-01T11:19:48.576Z,20.71
2017-09-01T11:22:22.522Z,21.46
2017-09-01T11:24:50.821Z,21.53
2017-09-01T11:27:19.118Z,21.23
2017-09-01T11:29:47.429Z,21.03
2017-09-01T11:32:15.726Z,20.98
2017-09-01T11:34:44.033Z,21.20
2017-09-01T11:37:12.356Z,21.09
2017-09-01T11:39:40.702Z,20.70
2017-09-01T11:42:09.014Z,20.83
2017-09-01T11:44:37.318Z,21.16
2017-09-01T11:47:05.612Z,21.18
2017-09-01T11:49:33.916Z,21.27
2017-09-01T11:52:02.220Z,20.94
2017-09-01T11:54:30.553Z,20.39
2017-09-01T11:56:58.849Z,20.87
2017-09-01T12:02:00.654Z,20.42
2017-09-01T12:04:29.013Z,20.45
2017-09-01T12:06:57.330Z,19.87
2017-09-01T12:09:25.640Z,19.84
2017-09-01T12:11:53.982Z,20.35
2017-09-01T12:14:22.286Z,19.84
2017-09-01T12:16:51.304Z,19.59
2017-09-01T12:19:19.616Z,19.84
2017-09-01T12:21:47.916Z,20.41
2017-09-01T12:24:16.224Z,20.50
2017-09-01T12:26:44.526Z,20.19
2017-09-01T12:29:12.836Z,20.33
2017-09-01T12:31:41.137Z,20.22
2017-09-01T12:34:09.441Z,20.08
2017-09-01T12:36:37.744Z,20.33
2017-09-01T12:39:06.052Z,20.02
2017-09-01T12:41:34.352Z,20.13
2017-09-01T12:44:02.709Z,19.81
2017-09-01T12:46:31.013Z,19.95
2017-09-01T12:48:59.308Z,20.71
2017-09-01T12:51:27.625Z,20.36
2017-09-01T12:53:55.939Z,20.56
2017-09-01T12:56:24.294Z,20.10
2017-09-01T12:58:52.600Z,20.02
2017-09-01T13:01:20.912Z,20.85
2017-09-01T13:03:49.210Z,21.44
2017-09-01T13:06:17.549Z,21.86
2017-09-01T13:08:45.853Z,21.88
2017-09-01T13:11:14.154Z,22.07
2017-09-01T13:13:42.480Z,22.09
2017-09-01T13:16:10.788Z,22.49
2017-09-01T13:18:39.097Z,22.46
2017-09-01T13:21:07.387Z,22.95
2017-09-01T13:23:35.706Z,23.22
2017-09-01T13:26:04.004Z,23.25
2017-09-01T13:28:32.346Z,23.19
2017-09-01T13:31:00.657Z,22.75
2017-09-01T13:33:28.965Z,22.58
2017-09-01T13:35:57.268Z,21.82
2017-09-01T13:38:25.583Z,22.60
2017-09-01T13:40:53.910Z,21.95
2017-09-01T13:43:22.238Z,22.33
2017-09-01T13:45:50.545Z,22.82
2017-09-01T13:48:18.854Z,22.53
2017-09-01T13:50:47.184Z,22.29
2017-09-01T13:53:15.489Z,22.51
2017-09-01T13:55:43.788Z,22.46
2017-09-01T13:58:12.099Z,21.88
2017-09-01T14:00:40.396Z,22.52
2017-09-01T14:03:08.709Z,22.12
2017-09-01T14:05:37.017Z,21.93
2017-09-01T14:08:05.355Z,22.11
2017-09-01T14:10:33.674Z,21.26
2017-09-01T14:13:02.019Z,20.50
2017-09-01T14:15:30.356Z,21.18
2017-09-01T14:17:58.694Z,21.01
2017-09-01T14:20:27.010Z,21.06
2017-09-01T14:22:55.325Z,21.51
2017-09-01T14:25:23.632Z,21.45
2017-09-01T14:27:51.932Z,21.24
2017-09-01T14:30:20.242Z,21.11
2017-09-01T14:32:48.540Z,21.09
2017-09-01T14:35:16.853Z,21.03
2017-09-01T14:37:45.169Z,21.03
2017-09-01T14:40:13.470Z,21.02
2017-09-01T14:42:41.838Z,21.33
2017-09-01T14:45:10.156Z,21.20
2017-09-01T14:47:38.498Z,21.60
2017-09-01T14:50:06.798Z,21.65
2017-09-01T14:52:35.120Z,21.10
2017-09-01T14:55:03.768Z,20.24
2017-09-01T14:57:32.057Z,20.89
2017-09-01T15:00:00.369Z,21.04
2017-09-01T15:02:28.678Z,21.21
2017-09-01T15:04:56.985Z,21.64
2017-09-01T15:07:25.284Z,21.49
2017-09-01T15:09:53.612Z,21.75
2017-09-01T15:12:21.917Z,21.27
2017-09-01T15:14:50.226Z,20.92
2017-09-01T15:17:18.532Z,21.09
2017-09-01T15:19:46.846Z,20.96
2017-09-01T15:22:15.200Z,20.42
2017-09-01T15:24:43.533Z,20.08
2017-09-01T15:27:11.825Z,20.01
2017-09-01T15:29:40.116Z,19.96
2017-09-01T15:32:08.737Z,19.98
2017-09-01T15:34:37.030Z,20.07
2017-09-01T15:37:05.345Z,19.76
2017-09-01T15:39:33.668Z,19.91
2017-09-01T15:42:01.980Z,19.71
2017-09-01T15:44:30.290Z,19.84
2017-09-01T15:46:58.617Z,20.08
2017-09-01T15:49:26.929Z,20.41
2017-09-01T15:51:55.253Z,20.48
2017-09-01T15:54:23.557Z,20.49
2017-09-01T15:56:51.869Z,20.22
2017-09-01T15:59:20.184Z,20.29
2017-09-01T16:01:48.485Z,20.21
2017-09-01T16:04:16.820Z,20.19
2017-09-01T16:06:45.117Z,20.26
2017-09-01T16:09:13.412Z,20.09
2017-09-01T16:11:41.749Z,20.02
2017-09-01T16:14:10.058Z,19.87
2017-09-01T16:16:38.357Z,19.45
2017-09-01T16:19:06.657Z,18.90
2017-09-01T16:21:34.976Z,18.89
2017-09-01T16:24:03.273Z,19.00
2017-09-01T16:26:31.580Z,19.01
2017-09-01T16:28:59.873Z,19.19
2017-09-01T16:31:28.213Z,19.33
2017-09-01T16:33:56.512Z,19.30
2017-09-01T16:36:24.818Z,19.33
2017-09-01T16:38:53.322Z,19.34
2017-09-01T16:41:21.630Z,19.41
2017-09-01T16:43:49.973Z,19.37
2017-09-01T16:46:18.273Z,19.31
2017-09-01T16:48:46.589Z,19.21
2017-09-01T16:51:14.885Z,19.11
2017-09-01T16:53:43.215Z,18.91
2017-09-01T16:56:11.516Z,18.69
2017-09-01T16:58:39.840Z,18.62
2017-09-01T17:01:08.151Z,18.55
2017-09-01T17:03:36.449Z,18.48
2017-09-01T17:06:04.772Z,18.42
2017-09-01T17:08:33.068Z,18.36
2017-09-01T17:11:01.383Z,18.24
2017-09-01T17:13:29.690Z,18.22
2017-09-01T17:15:57.997Z,18.26
2017-09-01T17:18:26.312Z,18.18
2017-09-01T17:20:54.624Z,18.18
2017-09-01T17:23:22.925Z,18.12
2017-09-01T17:25:51.256Z,18.06
2017-09-01T17:28:19.553Z,18.00
2017-09-01T17:30:47.856Z,17.95
2017-09-01T17:33:16.212Z,17.89
2017-09-01T17:35:44.522Z,17.89
2017-09-01T17:38:12.828Z,17.81
2017-09-01T17:40:41.136Z,17.77
2017-09-01T17:43:09.456Z,17.70
2017-09-01T17:45:37.777Z,17.61
2017-09-01T17:48:06.096Z,17.53
2017-09-01T17:50:34.385Z,17.44
2017-09-01T17:53:02.730Z,17.30
2017-09-01T17:55:31.041Z,17.25
2017-09-01T17:57:59.349Z,17.18
2017-09-01T18:00:27.657Z,17.16
2017-09-01T18:02:55.997Z,17.08
2017-09-01T18:05:24.313Z,17.03
2017-09-01T18:07:52.622Z,16.96
2017-09-01T18:10:20.936Z,16.81
2017-09-01T18:12:49.873Z,16.64
2017-09-01T18:15:18.193Z,16.53
2017-09-01T18:17:46.504Z,16.39
2017-09-01T18:20:14.804Z,16.20
2017-09-01T18:22:43.113Z,16.03
2017-09-01T18:25:11.436Z,16.07
2017-09-01T18:27:39.742Z,16.04
2017-09-01T18:30:08.056Z,15.99
2017-09-01T18:32:36.370Z,15.96
2017-09-01T18:35:04.679Z,15.88
2017-09-01T18:37:33.004Z,15.77
2017-09-01T18:40:01.316Z,15.75
2017-09-01T18:42:29.689Z,15.72
2017-09-01T18:44:57.999Z,15.64
2017-09-01T18:47:26.317Z,15.55
2017-09-01T18:49:54.628Z,15.46
2017-09-01T18:52:22.924Z,15.39
2017-09-01T18:54:51.258Z,15.37
2017-09-01T18:57:19.573Z,15.38
2017-09-01T18:59:47.904Z,15.36
2017-09-01T19:02:16.217Z,15.36
2017-09-01T19:04:44.536Z,15.31
2017-09-01T19:07:12.871Z,15.28
2017-09-01T19:09:41.188Z,15.20
2017-09-01T19:12:09.523Z,15.19
2017-09-01T19:14:37.817Z,15.16
2017-09-01T19:17:06.136Z,15.11
2017-09-01T19:19:34.458Z,14.98
2017-09-01T19:22:02.782Z,14.89
2017-09-01T19:24:31.106Z,14.79
2017-09-01T19:26:59.466Z,14.79
2017-09-01T19:29:27.789Z,14.78
2017-09-01T19:31:56.102Z,14.78
2017-09-01T19:34:24.431Z,14.72
2017-09-01T19:36:52.731Z,14.71
2017-09-01T19:39:21.057Z,14.72
2017-09-01T19:41:49.856Z,14.73
2017-09-01T19:44:18.164Z,14.61
2017-09-01T19:46:46.478Z,14.62
2017-09-01T19:49:14.807Z,14.54
2017-09-01T19:51:43.128Z,14.49
2017-09-01T19:54:11.456Z,14.44
2017-09-01T19:56:39.761Z,14.36
2017-09-01T19:59:08.066Z,14.28
2017-09-01T20:01:36.373Z,14.34
2017-09-01T20:04:04.681Z,14.28
2017-09-01T20:06:33.020Z,14.13
2017-09-01T20:09:01.321Z,14.09
2017-09-01T20:11:29.641Z,14.04
2017-09-01T20:13:57.950Z,13.92
2017-09-01T20:16:26.273Z,13.90
2017-09-01T20:18:54.587Z,13.91
2017-09-01T20:21:22.907Z,13.92
2017-09-01T20:23:51.216Z,13.96
2017-09-01T20:26:19.532Z,13.99
2017-09-01T20:28:47.845Z,14.02
2017-09-01T20:31:16.197Z,14.18
2017-09-01T20:33:44.494Z,14.20
2017-09-01T20:36:12.825Z,14.21
2017-09-01T20:38:41.821Z,14.23
2017-09-01T20:41:10.148Z,14.19
2017-09-01T20:43:38.491Z,14.20
2017-09-01T20:46:06.811Z,14.21
2017-09-01T20:48:35.171Z,14.20
2017-09-01T20:51:03.469Z,14.17
2017-09-01T20:53:31.784Z,14.21
2017-09-01T20:56:00.103Z,14.27
2017-09-01T20:58:28.434Z,14.21
2017-09-01T21:00:56.738Z,14.19
2017-09-01T21:03:25.038Z,14.15
2017-09-01T21:05:53.367Z,14.03
2017-09-01T21:08:21.696Z,13.98
2017-09-01T21:10:50.021Z,13.95
2017-09-01T21:13:18.338Z,13.83
2017-09-01T21:15:46.649Z,13.89
2017-09-01T21:18:14.952Z,13.88
2017-09-01T21:20:43.282Z,13.98
2017-09-01T21:23:11.588Z,14.08
2017-09-01T21:25:39.896Z,14.16
2017-09-01T21:28:08.196Z,14.06
2017-09-01T21:30:36.525Z,13.94
2017-09-01T21:33:04.830Z,13.97
2017-09-01T21:35:33.175Z,14.07
2017-09-01T21:38:01.505Z,14.18
2017-09-01T21:40:29.817Z,14.27
2017-09-01T21:42:58.139Z,14.33
2017-09-01T21:45:26.448Z,14.42
2017-09-01T21:47:54.757Z,14.32
2017-09-01T21:50:23.067Z,14.12
2017-09-01T21:52:51.395Z,13.98
2017-09-01T21:55:19.707Z,13.96
2017-09-01T21:57:48.371Z,13.96
2017-09-01T22:00:16.670Z,13.91
2017-09-01T22:02:45.011Z,13.82
2017-09-01T22:05:13.321Z,13.77
2017-09-01T22:07:41.641Z,13.65
2017-09-01T22:10:09.967Z,13.61
2017-09-01T22:12:38.269Z,13.59
2017-09-01T22:15:06.589Z,13.60
2017-09-01T22:17:34.887Z,13.58
2017-09-01T22:20:03.213Z,13.58
2017-09-01T22:22:31.513Z,13.54
2017-09-01T22:24:59.854Z,13.53
2017-09-01T22:27:28.164Z,13.46
2017-09-01T22:29:56.472Z,13.31
2017-09-01T22:32:24.775Z,13.21
2017-09-01T22:34:53.075Z,13.16
2017-09-01T22:37:21.381Z,13.14
2017-09-01T22:39:49.689Z,13.11
2017-09-01T22:42:18.019Z,13.01
2017-09-01T22:44:46.320Z,12.95
2017-09-01T22:47:14.652Z,12.80
2017-09-01T22:49:42.971Z,12.79
2017-09-01T22:52:11.294Z,12.60
2017-09-01T22:54:39.627Z,12.49
2017-09-01T22:57:07.937Z,12.48
2017-09-01T22:59:36.236Z,12.42
2017-09-01T23:02:04.554Z,12.39
2017-09-01T23:04:32.931Z,12.37
2017-09-01T23:07:01.230Z,12.33
2017-09-01T23:09:29.553Z,12.29
2017-09-01T23:11:57.865Z,12.25
2017-09-01T23:14:26.181Z,12.23
2017-09-01T23:16:54.493Z,12.28
2017-09-01T23:19:22.795Z,12.32
2017-09-01T23:21:51.129Z,12.32
2017-09-01T23:24:19.442Z,12.30
2017-09-01T23:26:47.761Z,12.35
2017-09-01T23:29:16.069Z,12.40
2017-09-01T23:31:44.415Z,12.43
2017-09-01T23:34:12.718Z,12.41
2017-09-01T23:36:41.023Z,12.27
2017-09-01T23:39:09.358Z,12.24
2017-09-01T23:41:37.657Z,12.19
2017-09-01T23:44:05.966Z,12.20
2017-09-01T23:46:34.279Z,12.07
2017-09-01T23:49:02.622Z,12.07
2017-09-01T23:51:30.932Z,11.96
2017-09-01T23:53:59.240Z,11.91
2017-09-01T23:56:27.538Z,11.75
2017-09-01T23:58:55.874Z,11.73
